createdAt,value
2017-07-16T00:00:37.322Z,1001.2
2017-07-16T00:01:37.351Z,1001.22
2017-07-16T00:02:37.380Z,1001.2
2017-07-16T00:03:37.409Z,1001.2
2017-07-16T00:04:37.433Z,1001.2
2017-07-16T00:05:37.467Z,1001.25
2017-07-16T00:06:37.495Z,1001.24
2017-07-16T00:07:37.521Z,1001.24
2017-07-16T00:08:37.553Z,1001.21
2017-07-16T00:09:37.577Z,1001.22
2017-07-16T00:10:37.855Z,1001.23
2017-07-16T00:11:37.639Z,1001.25
2017-07-16T00:12:37.660Z,1001.23
2017-07-16T00:13:37.689Z,1001.29
2017-07-16T00:14:37.721Z,1001.27
2017-07-16T00:15:38.002Z,1001.32
2017-07-16T00:16:37.779Z,1001.28
2017-07-16T00:17:37.803Z,1001.29
2017-07-16T00:18:37.833Z,1001.33
2017-07-16T00:19:37.861Z,1001.31
2017-07-16T00:20:38.147Z,1001.3
2017-07-16T00:21:37.923Z,1001.34
2017-07-16T00:22:37.951Z,1001.35
2017-07-16T00:23:37.973Z,1001.35
2017-07-16T00:24:38.005Z,1001.35
2017-07-16T00:25:38.286Z,1001.42
2017-07-16T00:26:38.062Z,1001.38
2017-07-16T00:27:38.090Z,1001.39
2017-07-16T00:28:38.120Z,1001.38
2017-07-16T00:29:38.145Z,1001.38
2017-07-16T00:30:38.178Z,1001.39
2017-07-16T00:31:38.205Z,1001.41
2017-07-16T00:32:38.235Z,1001.44
2017-07-16T00:33:38.263Z,1001.44
2017-07-16T00:34:38.293Z,1001.43
2017-07-16T00:35:38.321Z,1001.39
2017-07-16T00:36:38.338Z,1001.42
2017-07-16T00:37:38.374Z,1001.34
2017-07-16T00:38:38.404Z,1001.38
2017-07-16T00:39:38.432Z,1001.41
2017-07-16T00:40:38.461Z,1001.39
2017-07-16T00:41:38.490Z,1001.43
2017-07-16T00:42:38.518Z,1001.42
2017-07-16T00:43:38.548Z,1001.41
2017-07-16T00:44:38.576Z,1001.43
2017-07-16T00:45:38.604Z,1001.4
2017-07-16T00:46:38.626Z,1001.44
2017-07-16T00:47:38.654Z,1001.46
2017-07-16T00:48:38.688Z,1001.42
2017-07-16T00:49:38.712Z,1001.39
2017-07-16T00:50:38.749Z,1001.38
2017-07-16T00:51:38.774Z,1001.43
2017-07-16T00:52:38.799Z,1001.4
2017-07-16T00:53:38.828Z,1001.43
2017-07-16T00:54:38.861Z,1001.42
2017-07-16T00:55:38.885Z,1001.48
2017-07-16T00:56:38.913Z,1001.47
2017-07-16T00:57:38.938Z,1001.46
2017-07-16T00:58:38.972Z,1001.48
2017-07-16T00:59:39.000Z,1001.52
2017-07-16T01:00:39.025Z,1001.51
2017-07-16T01:01:39.054Z,1001.51
2017-07-16T01:02:39.087Z,1001.51
2017-07-16T01:03:39.117Z,1001.46
2017-07-16T01:04:39.140Z,1001.52
2017-07-16T01:05:39.172Z,1001.54
2017-07-16T01:06:39.202Z,1001.53
2017-07-16T01:07:39.227Z,1001.52
2017-07-16T01:08:39.256Z,1001.49
2017-07-16T01:09:39.285Z,1001.48
2017-07-16T01:10:39.312Z,1001.47
2017-07-16T01:11:39.342Z,1001.49
2017-07-16T01:12:39.371Z,1001.46
2017-07-16T01:13:39.401Z,1001.46
2017-07-16T01:14:39.429Z,1001.39
2017-07-16T01:15:39.457Z,1001.41
2017-07-16T01:16:39.487Z,1001.34
2017-07-16T01:17:39.512Z,1001.34
2017-07-16T01:18:39.570Z,1001.34
2017-07-16T01:19:39.569Z,1001.32
2017-07-16T01:20:39.597Z,1001.32
2017-07-16T01:21:39.626Z,1001.3
2017-07-16T01:22:39.654Z,1001.32
2017-07-16T01:23:39.680Z,1001.28
2017-07-16T01:24:39.713Z,1001.3
2017-07-16T01:25:39.742Z,1001.24
2017-07-16T01:26:40.031Z,1001.3
2017-07-16T01:27:39.797Z,1001.3
2017-07-16T01:28:39.825Z,1001.27
2017-07-16T01:29:39.851Z,1001.25
2017-07-16T01:30:39.884Z,1001.28
2017-07-16T01:31:40.210Z,1001.26
2017-07-16T01:32:39.939Z,1001.25
2017-07-16T01:33:39.964Z,1001.25
2017-07-16T01:34:39.995Z,1001.23
2017-07-16T01:35:40.026Z,1001.26
2017-07-16T01:36:40.303Z,1001.22
2017-07-16T01:37:40.080Z,1001.24
2017-07-16T01:38:40.108Z,1001.28
2017-07-16T01:39:40.135Z,1001.28
2017-07-16T01:40:40.166Z,1001.26
2017-07-16T01:41:40.194Z,1001.23
2017-07-16T01:42:40.220Z,1001.28
2017-07-16T01:43:40.251Z,1001.27
2017-07-16T01:44:40.278Z,1001.29
2017-07-16T01:45:40.301Z,1001.25
2017-07-16T01:46:40.339Z,1001.29
2017-07-16T01:47:40.364Z,1001.25
2017-07-16T01:48:40.392Z,1001.23
2017-07-16T01:49:40.421Z,1001.22
2017-07-16T01:50:40.448Z,1001.22
2017-07-16T01:51:40.479Z,1001.24
2017-07-16T01:52:40.503Z,1001.23
2017-07-16T01:53:40.536Z,1001.22
2017-07-16T01:54:40.567Z,1001.21
2017-07-16T01:55:40.590Z,1001.23
2017-07-16T01:56:40.618Z,1001.24
2017-07-16T01:57:40.653Z,1001.2
2017-07-16T01:58:40.674Z,1001.24
2017-07-16T01:59:40.705Z,1001.22
2017-07-16T02:00:40.734Z,1001.27
2017-07-16T02:01:40.763Z,1001.24
2017-07-16T02:02:40.787Z,1001.29
2017-07-16T02:03:40.824Z,1001.26
2017-07-16T02:04:40.844Z,1001.29
2017-07-16T02:05:40.869Z,1001.24
2017-07-16T02:06:40.898Z,1001.28
2017-07-16T02:07:40.930Z,1001.29
2017-07-16T02:08:40.959Z,1001.22
2017-07-16T02:09:40.985Z,1001.26
2017-07-16T02:10:41.017Z,1001.24
2017-07-16T02:11:41.043Z,1001.23
2017-07-16T02:12:41.071Z,1001.27
2017-07-16T02:13:41.101Z,1001.27
2017-07-16T02:14:41.124Z,1001.27
2017-07-16T02:15:41.158Z,1001.25
2017-07-16T02:16:41.186Z,1001.25
2017-07-16T02:17:41.215Z,1001.26
2017-07-16T02:18:41.239Z,1001.27
2017-07-16T02:19:41.273Z,1001.28
2017-07-16T02:20:41.294Z,1001.29
2017-07-16T02:21:41.327Z,1001.31
2017-07-16T02:22:41.351Z,1001.35
2017-07-16T02:23:41.384Z,1001.35
2017-07-16T02:24:41.413Z,1001.32
2017-07-16T02:25:41.441Z,1001.32
2017-07-16T02:26:41.478Z,1001.37
2017-07-16T02:27:41.500Z,1001.34
2017-07-16T02:28:41.527Z,1001.34
2017-07-16T02:29:41.552Z,1001.31
2017-07-16T02:30:41.577Z,1001.34
2017-07-16T02:31:41.608Z,1001.34
2017-07-16T02:32:41.635Z,1001.32
2017-07-16T02:33:41.663Z,1001.31
2017-07-16T02:34:41.696Z,1001.27
2017-07-16T02:35:41.721Z,1001.28
2017-07-16T02:36:41.750Z,1001.29
2017-07-16T02:37:41.779Z,1001.27
2017-07-16T02:38:41.803Z,1001.27
2017-07-16T02:39:41.837Z,1001.27
2017-07-16T02:40:41.865Z,1001.29
2017-07-16T02:41:41.893Z,1001.26
2017-07-16T02:42:41.918Z,1001.29
2017-07-16T02:43:41.943Z,1001.27
2017-07-16T02:44:41.978Z,1001.28
2017-07-16T02:45:42.005Z,1001.29
2017-07-16T02:46:42.052Z,1001.29
2017-07-16T02:47:42.063Z,1001.29
2017-07-16T02:48:42.087Z,1001.3
2017-07-16T02:49:42.120Z,1001.28
2017-07-16T02:50:42.149Z,1001.29
2017-07-16T02:51:42.174Z,1001.31
2017-07-16T02:52:42.454Z,1001.3
2017-07-16T02:53:42.227Z,1001.32
2017-07-16T02:54:42.262Z,1001.33
2017-07-16T02:55:42.289Z,1001.33
2017-07-16T02:56:42.318Z,1001.33
2017-07-16T02:57:42.646Z,1001.33
2017-07-16T02:58:42.371Z,1001.35
2017-07-16T02:59:42.396Z,1001.34
2017-07-16T03:00:42.429Z,1001.37
2017-07-16T03:01:42.458Z,1001.35
2017-07-16T03:02:42.782Z,1001.34
2017-07-16T03:03:42.516Z,1001.37
2017-07-16T03:04:42.544Z,1001.34
2017-07-16T03:05:42.572Z,1001.35
2017-07-16T03:06:42.597Z,1001.32
2017-07-16T03:07:42.878Z,1001.34
2017-07-16T03:08:42.651Z,1001.31
2017-07-16T03:09:42.684Z,1001.35
2017-07-16T03:10:42.708Z,1001.35
2017-07-16T03:11:42.741Z,1001.36
2017-07-16T03:12:43.022Z,1001.38
2017-07-16T03:13:42.795Z,1001.4
2017-07-16T03:14:42.823Z,1001.42
2017-07-16T03:15:42.852Z,1001.4
2017-07-16T03:16:42.880Z,1001.38
2017-07-16T03:17:43.161Z,1001.43
2017-07-16T03:18:42.940Z,1001.41
2017-07-16T03:19:42.963Z,1001.39
2017-07-16T03:20:42.995Z,1001.42
2017-07-16T03:21:43.018Z,1001.4
2017-07-16T03:22:43.344Z,1001.42
2017-07-16T03:23:43.078Z,1001.45
2017-07-16T03:24:43.107Z,1001.43
2017-07-16T03:25:43.140Z,1001.48
2017-07-16T03:26:43.165Z,1001.44
2017-07-16T03:27:43.193Z,1001.44
2017-07-16T03:28:43.223Z,1001.42
2017-07-16T03:29:43.251Z,1001.46
2017-07-16T03:30:43.276Z,1001.45
2017-07-16T03:31:43.305Z,1001.48
2017-07-16T03:32:43.334Z,1001.49
2017-07-16T03:33:43.361Z,1001.52
2017-07-16T03:34:43.388Z,1001.55
2017-07-16T03:35:43.420Z,1001.5
2017-07-16T03:36:43.449Z,1001.56
2017-07-16T03:37:43.473Z,1001.55
2017-07-16T03:38:43.503Z,1001.57
2017-07-16T03:39:43.532Z,1001.54
2017-07-16T03:40:43.558Z,1001.51
2017-07-16T03:41:43.589Z,1001.47
2017-07-16T03:42:43.618Z,1001.42
2017-07-16T03:43:43.644Z,1001.39
2017-07-16T03:44:43.672Z,1001.36
2017-07-16T03:45:43.700Z,1001.36
2017-07-16T03:46:43.725Z,1001.35
2017-07-16T03:47:43.758Z,1001.36
2017-07-16T03:48:43.788Z,1001.33
2017-07-16T03:49:43.815Z,1001.38
2017-07-16T03:50:43.842Z,1001.37
2017-07-16T03:51:43.868Z,1001.4
2017-07-16T03:52:43.899Z,1001.43
2017-07-16T03:53:43.927Z,1001.41
2017-07-16T03:54:43.955Z,1001.44
2017-07-16T03:55:43.984Z,1001.42
2017-07-16T03:56:44.010Z,1001.4
2017-07-16T03:57:44.041Z,1001.43
2017-07-16T03:58:44.067Z,1001.37
2017-07-16T03:59:44.096Z,1001.42
2017-07-16T04:00:44.120Z,1001.4
2017-07-16T04:01:44.150Z,1001.44
2017-07-16T04:02:44.183Z,1001.39
2017-07-16T04:03:44.207Z,1001.38
2017-07-16T04:04:44.241Z,1001.38
2017-07-16T04:05:44.265Z,1001.36
2017-07-16T04:06:44.289Z,1001.4
2017-07-16T04:07:44.323Z,1001.49
2017-07-16T04:08:44.351Z,1001.58
2017-07-16T04:09:44.380Z,1001.58
2017-07-16T04:10:44.405Z,1001.56
2017-07-16T04:11:44.429Z,1001.5
2017-07-16T04:12:44.458Z,1001.49
2017-07-16T04:13:44.491Z,1001.46
2017-07-16T04:14:44.519Z,1001.47
2017-07-16T04:15:44.549Z,1001.47
2017-07-16T04:16:44.580Z,1001.46
2017-07-16T04:17:44.602Z,1001.47
2017-07-16T04:18:44.628Z,1001.46
2017-07-16T04:19:44.657Z,1001.49
2017-07-16T04:20:44.690Z,1001.46
2017-07-16T04:21:44.718Z,1001.45
2017-07-16T04:22:44.746Z,1001.5
2017-07-16T04:23:44.775Z,1001.47
2017-07-16T04:24:44.803Z,1001.51
2017-07-16T04:25:44.825Z,1001.48
2017-07-16T04:26:44.858Z,1001.49
2017-07-16T04:27:44.882Z,1001.48
2017-07-16T04:28:44.915Z,1001.52
2017-07-16T04:29:44.940Z,1001.48
2017-07-16T04:30:44.974Z,1001.54
2017-07-16T04:31:44.998Z,1001.54
2017-07-16T04:32:45.027Z,1001.54
2017-07-16T04:33:45.056Z,1001.55
2017-07-16T04:34:45.081Z,1001.61
2017-07-16T04:35:45.113Z,1001.61
2017-07-16T04:36:45.142Z,1001.61
2017-07-16T04:37:45.166Z,1001.56
2017-07-16T04:38:45.196Z,1001.62
2017-07-16T04:39:45.224Z,1001.6
2017-07-16T04:40:45.250Z,1001.6
2017-07-16T04:41:45.278Z,1001.61
2017-07-16T04:42:45.307Z,1001.65
2017-07-16T04:43:45.371Z,1001.64
2017-07-16T04:44:45.361Z,1001.66
2017-07-16T04:45:45.389Z,1001.67
2017-07-16T04:46:45.421Z,1001.68
2017-07-16T04:47:45.453Z,1001.7
2017-07-16T04:48:45.476Z,1001.66
2017-07-16T04:49:45.505Z,1001.69
2017-07-16T04:50:45.533Z,1001.7
2017-07-16T04:51:45.562Z,1001.64
2017-07-16T04:52:45.591Z,1001.64
2017-07-16T04:53:45.619Z,1001.64
2017-07-16T04:54:45.648Z,1001.64
2017-07-16T04:55:45.677Z,1001.65
2017-07-16T04:56:45.708Z,1001.67
2017-07-16T04:57:45.735Z,1001.69
2017-07-16T04:58:46.015Z,1001.64
2017-07-16T04:59:45.792Z,1001.7
2017-07-16T05:00:45.817Z,1001.69
2017-07-16T05:01:45.846Z,1001.7
2017-07-16T05:02:45.874Z,1001.67
2017-07-16T05:03:46.156Z,1001.68
2017-07-16T05:04:45.928Z,1001.65
2017-07-16T05:05:45.958Z,1001.66
2017-07-16T05:06:45.986Z,1001.68
2017-07-16T05:07:46.014Z,1001.69
2017-07-16T05:08:46.346Z,1001.73
2017-07-16T05:09:46.069Z,1001.75
2017-07-16T05:10:46.102Z,1001.7
2017-07-16T05:11:46.131Z,1001.76
2017-07-16T05:12:46.155Z,1001.72
2017-07-16T05:13:46.185Z,1001.7
2017-07-16T05:14:46.213Z,1001.72
2017-07-16T05:15:46.242Z,1001.71
2017-07-16T05:16:46.270Z,1001.76
2017-07-16T05:17:46.301Z,1001.78
2017-07-16T05:18:46.325Z,1001.78
2017-07-16T05:19:46.354Z,1001.79
2017-07-16T05:20:46.383Z,1001.81
2017-07-16T05:21:46.411Z,1001.83
2017-07-16T05:22:46.440Z,1001.79
2017-07-16T05:23:46.467Z,1001.77
2017-07-16T05:24:46.489Z,1001.77
2017-07-16T05:25:46.522Z,1001.76
2017-07-16T05:26:46.555Z,1001.74
2017-07-16T05:27:46.585Z,1001.73
2017-07-16T05:28:46.604Z,1001.73
2017-07-16T05:29:46.638Z,1001.69
2017-07-16T05:30:46.662Z,1001.72
2017-07-16T05:31:46.691Z,1001.73
2017-07-16T05:32:46.725Z,1001.71
2017-07-16T05:33:46.749Z,1001.79
2017-07-16T05:34:46.778Z,1001.8
2017-07-16T05:35:46.807Z,1001.81
2017-07-16T05:36:46.831Z,1001.82
2017-07-16T05:37:46.865Z,1001.82
2017-07-16T05:38:46.890Z,1001.86
2017-07-16T05:39:46.919Z,1001.84
2017-07-16T05:40:46.948Z,1001.85
2017-07-16T05:41:46.973Z,1001.89
2017-07-16T05:42:47.006Z,1001.88
2017-07-16T05:43:47.033Z,1001.86
2017-07-16T05:44:47.061Z,1001.89
2017-07-16T05:45:47.089Z,1001.85
2017-07-16T05:46:47.116Z,1001.86
2017-07-16T05:47:47.140Z,1001.89
2017-07-16T05:48:47.173Z,1001.9
2017-07-16T05:49:47.203Z,1001.89
2017-07-16T05:50:47.227Z,1001.91
2017-07-16T05:51:47.265Z,1001.91
2017-07-16T05:52:47.282Z,1001.91
2017-07-16T05:53:47.314Z,1001.92
2017-07-16T05:54:47.345Z,1001.91
2017-07-16T05:55:47.369Z,1001.96
2017-07-16T05:56:47.391Z,1001.97
2017-07-16T05:57:47.419Z,1002
2017-07-16T05:58:47.454Z,1002.03
2017-07-16T05:59:47.483Z,1002.02
2017-07-16T06:00:47.511Z,1002.01
2017-07-16T06:01:47.540Z,1002
2017-07-16T06:02:47.570Z,1002.06
2017-07-16T06:03:47.589Z,1002.05
2017-07-16T06:04:47.623Z,1002.07
2017-07-16T06:05:47.651Z,1002.1
2017-07-16T06:06:47.680Z,1002.12
2017-07-16T06:07:47.704Z,1002.15
2017-07-16T06:08:47.737Z,1002.15
2017-07-16T06:09:47.767Z,1002.17
2017-07-16T06:10:47.795Z,1002.15
2017-07-16T06:11:47.820Z,1002.13
2017-07-16T06:12:47.847Z,1002.14
2017-07-16T06:13:47.878Z,1002.18
2017-07-16T06:14:47.906Z,1002.2
2017-07-16T06:15:47.934Z,1002.25
2017-07-16T06:16:47.961Z,1002.21
2017-07-16T06:17:47.994Z,1002.24
2017-07-16T06:18:48.017Z,1002.24
2017-07-16T06:19:48.045Z,1002.22
2017-07-16T06:20:48.074Z,1002.26
2017-07-16T06:21:48.102Z,1002.2
2017-07-16T06:22:48.127Z,1002.23
2017-07-16T06:23:48.161Z,1002.22
2017-07-16T06:24:48.189Z,1002.22
2017-07-16T06:25:48.214Z,1002.2
2017-07-16T06:26:48.244Z,1002.18
2017-07-16T06:27:48.269Z,1002.19
2017-07-16T06:28:48.301Z,1002.2
2017-07-16T06:29:48.330Z,1002.21
2017-07-16T06:30:48.360Z,1002.27
2017-07-16T06:31:48.389Z,1002.24
2017-07-16T06:32:48.409Z,1002.27
2017-07-16T06:33:48.441Z,1002.25
2017-07-16T06:34:48.470Z,1002.26
2017-07-16T06:35:48.499Z,1002.29
2017-07-16T06:36:48.527Z,1002.27
2017-07-16T06:37:48.552Z,1002.28
2017-07-16T06:38:48.580Z,1002.26
2017-07-16T06:39:48.609Z,1002.26
2017-07-16T06:40:48.638Z,1002.27
2017-07-16T06:41:48.667Z,1002.27
2017-07-16T06:42:48.694Z,1002.27
2017-07-16T06:43:48.725Z,1002.28
2017-07-16T06:44:48.754Z,1002.29
2017-07-16T06:45:48.782Z,1002.3
2017-07-16T06:46:48.811Z,1002.29
2017-07-16T06:47:48.836Z,1002.29
2017-07-16T06:48:48.866Z,1002.33
2017-07-16T06:49:48.894Z,1002.35
2017-07-16T06:50:48.922Z,1002.34
2017-07-16T06:51:48.951Z,1002.34
2017-07-16T06:52:48.980Z,1002.31
2017-07-16T06:53:49.011Z,1002.28
2017-07-16T06:54:49.062Z,1002.29
2017-07-16T06:55:49.060Z,1002.31
2017-07-16T06:56:49.089Z,1002.27
2017-07-16T06:57:49.120Z,1002.24
2017-07-16T06:58:49.149Z,1002.27
2017-07-16T06:59:49.177Z,1002.25
2017-07-16T07:00:49.204Z,1002.27
2017-07-16T07:01:49.231Z,1002.24
2017-07-16T07:02:49.264Z,1002.24
2017-07-16T07:03:49.293Z,1002.24
2017-07-16T07:04:49.318Z,1002.23
2017-07-16T07:05:49.346Z,1002.2
2017-07-16T07:06:49.375Z,1002.21
2017-07-16T07:07:49.404Z,1002.24
2017-07-16T07:08:49.433Z,1002.24
2017-07-16T07:09:49.461Z,1002.24
2017-07-16T07:10:49.491Z,1002.19
2017-07-16T07:11:49.519Z,1002.22
2017-07-16T07:12:49.551Z,1002.21
2017-07-16T07:13:49.574Z,1002.21
2017-07-16T07:14:49.602Z,1002.2
2017-07-16T07:15:49.631Z,1002.24
2017-07-16T07:16:49.660Z,1002.22
2017-07-16T07:17:49.688Z,1002.25
2017-07-16T07:18:49.717Z,1002.26
2017-07-16T07:19:49.746Z,1002.27
2017-07-16T07:20:49.775Z,1002.26
2017-07-16T07:21:49.801Z,1002.26
2017-07-16T07:22:49.831Z,1002.29
2017-07-16T07:23:49.860Z,1002.25
2017-07-16T07:24:49.885Z,1002.29
2017-07-16T07:25:49.914Z,1002.27
2017-07-16T07:26:49.940Z,1002.29
2017-07-16T07:27:49.973Z,1002.29
2017-07-16T07:28:50.001Z,1002.26
2017-07-16T07:29:50.028Z,1002.27
2017-07-16T07:30:50.055Z,1002.28
2017-07-16T07:31:50.088Z,1002.29
2017-07-16T07:32:50.119Z,1002.28
2017-07-16T07:33:50.148Z,1002.31
2017-07-16T07:34:50.167Z,1002.29
2017-07-16T07:35:50.194Z,1002.28
2017-07-16T07:36:50.227Z,1002.3
2017-07-16T07:37:50.256Z,1002.28
2017-07-16T07:38:50.285Z,1002.24
2017-07-16T07:39:50.566Z,1002.25
2017-07-16T07:40:50.343Z,1002.2
2017-07-16T07:41:50.372Z,1002.23
2017-07-16T07:42:50.401Z,1002.26
2017-07-16T07:43:50.429Z,1002.26
2017-07-16T07:44:50.709Z,1002.25
2017-07-16T07:45:50.487Z,1002.27
2017-07-16T07:46:50.512Z,1002.28
2017-07-16T07:47:50.536Z,1002.28
2017-07-16T07:48:50.570Z,1002.26
2017-07-16T07:49:50.849Z,1002.29
2017-07-16T07:50:50.628Z,1002.25
2017-07-16T07:51:50.657Z,1002.22
2017-07-16T07:52:50.686Z,1002.23
2017-07-16T07:53:50.718Z,1002.25
2017-07-16T07:54:50.995Z,1002.22
2017-07-16T07:55:50.767Z,1002.22
2017-07-16T07:56:50.801Z,1002.24
2017-07-16T07:57:50.825Z,1002.2
2017-07-16T07:58:50.851Z,1002.15
2017-07-16T07:59:51.134Z,1002.16
2017-07-16T08:00:50.939Z,1002.17
2017-07-16T08:01:50.943Z,1002.17
2017-07-16T08:02:50.971Z,1002.16
2017-07-16T08:03:50.998Z,1002.17
2017-07-16T08:04:51.278Z,1002.17
2017-07-16T08:05:51.056Z,1002.2
2017-07-16T08:06:51.086Z,1002.2
2017-07-16T08:07:51.115Z,1002.18
2017-07-16T08:08:51.138Z,1002.16
2017-07-16T08:09:51.171Z,1002.17
2017-07-16T08:10:51.199Z,1002.14
2017-07-16T08:11:51.224Z,1002.13
2017-07-16T08:12:51.253Z,1002.16
2017-07-16T08:13:51.281Z,1002.17
2017-07-16T08:14:51.310Z,1002.17
2017-07-16T08:15:51.339Z,1002.21
2017-07-16T08:16:51.370Z,1002.17
2017-07-16T08:17:51.398Z,1002.19
2017-07-16T08:18:51.426Z,1002.21
2017-07-16T08:19:51.453Z,1002.17
2017-07-16T08:20:51.479Z,1002.16
2017-07-16T08:21:51.511Z,1002.19
2017-07-16T08:22:51.536Z,1002.18
2017-07-16T08:23:51.570Z,1002.15
2017-07-16T08:24:51.598Z,1002.17
2017-07-16T08:25:51.626Z,1002.17
2017-07-16T08:26:51.656Z,1002.18
2017-07-16T08:27:51.685Z,1002.16
2017-07-16T08:28:51.713Z,1002.18
2017-07-16T08:29:51.738Z,1002.16
2017-07-16T08:30:51.790Z,1002.17
2017-07-16T08:31:51.793Z,1002.18
2017-07-16T08:32:51.821Z,1002.16
2017-07-16T08:33:51.850Z,1002.19
2017-07-16T08:34:51.878Z,1002.22
2017-07-16T08:35:51.911Z,1002.18
2017-07-16T08:36:51.939Z,1002.22
2017-07-16T08:37:51.974Z,1002.2
2017-07-16T08:38:51.997Z,1002.22
2017-07-16T08:39:52.026Z,1002.21
2017-07-16T08:40:52.051Z,1002.2
2017-07-16T08:41:52.082Z,1002.19
2017-07-16T08:42:52.111Z,1002.2
2017-07-16T08:43:52.140Z,1002.23
2017-07-16T08:44:52.206Z,1002.23
2017-07-16T08:45:52.198Z,1002.23
2017-07-16T08:46:52.227Z,1002.2
2017-07-16T08:47:52.252Z,1002.21
2017-07-16T08:48:52.286Z,1002.16
2017-07-16T08:49:52.313Z,1002.19
2017-07-16T08:50:52.342Z,1002.19
2017-07-16T08:51:52.367Z,1002.17
2017-07-16T08:52:52.395Z,1002.2
2017-07-16T08:53:52.428Z,1002.21
2017-07-16T08:54:52.456Z,1002.25
2017-07-16T08:55:52.478Z,1002.21
2017-07-16T08:56:52.570Z,1002.22
2017-07-16T08:57:52.539Z,1002.22
2017-07-16T08:58:52.571Z,1002.22
2017-07-16T08:59:52.596Z,1002.16
2017-07-16T09:00:52.626Z,1002.16
2017-07-16T09:01:52.655Z,1002.15
2017-07-16T09:02:52.685Z,1002.13
2017-07-16T09:03:52.713Z,1002.17
2017-07-16T09:04:52.742Z,1002.14
2017-07-16T09:05:52.767Z,1002.11
2017-07-16T09:06:52.793Z,1002.15
2017-07-16T09:07:52.824Z,1002.16
2017-07-16T09:08:52.858Z,1002.12
2017-07-16T09:09:52.884Z,1002.1
2017-07-16T09:10:52.963Z,1002.12
2017-07-16T09:11:52.938Z,1002.09
2017-07-16T09:12:52.971Z,1002.08
2017-07-16T09:13:53.010Z,1002.07
2017-07-16T09:14:53.023Z,1002.09
2017-07-16T09:15:53.060Z,1002.06
2017-07-16T09:16:53.086Z,1002.05
2017-07-16T09:17:53.114Z,1002.05
2017-07-16T09:18:53.144Z,1002.05
2017-07-16T09:19:53.168Z,1002.04
2017-07-16T09:20:53.368Z,1002.08
2017-07-16T09:21:53.230Z,1002.05
2017-07-16T09:22:53.255Z,1002.04
2017-07-16T09:23:53.290Z,1002.02
2017-07-16T09:24:53.312Z,1002.05
2017-07-16T09:25:53.349Z,1002.05
2017-07-16T09:26:53.374Z,1002.1
2017-07-16T09:27:53.403Z,1002.05
2017-07-16T09:28:53.428Z,1002.08
2017-07-16T09:29:53.461Z,1002.04
2017-07-16T09:30:53.740Z,1001.99
2017-07-16T09:31:53.518Z,1002.03
2017-07-16T09:32:53.548Z,1002.04
2017-07-16T09:33:53.576Z,1002.06
2017-07-16T09:34:53.608Z,1002.03
2017-07-16T09:35:53.876Z,1002.06
2017-07-16T09:36:53.658Z,1002.04
2017-07-16T09:37:53.717Z,1002.01
2017-07-16T09:38:53.712Z,1001.96
2017-07-16T09:39:53.745Z,1001.99
2017-07-16T09:40:54.129Z,1001.99
2017-07-16T09:41:53.806Z,1001.98
2017-07-16T09:42:53.830Z,1002
2017-07-16T09:43:53.865Z,1001.96
2017-07-16T09:44:53.892Z,1001.95
2017-07-16T09:45:54.174Z,1001.95
2017-07-16T09:46:53.950Z,1001.96
2017-07-16T09:47:53.979Z,1002
2017-07-16T09:48:54.012Z,1001.97
2017-07-16T09:49:54.032Z,1002
2017-07-16T09:50:54.317Z,1002
2017-07-16T09:51:54.091Z,1001.94
2017-07-16T09:52:54.124Z,1001.91
2017-07-16T09:53:54.153Z,1001.92
2017-07-16T09:54:54.181Z,1001.94
2017-07-16T09:55:54.205Z,1001.93
2017-07-16T09:56:54.234Z,1001.95
2017-07-16T09:57:54.268Z,1001.99
2017-07-16T09:58:54.291Z,1001.95
2017-07-16T09:59:54.320Z,1001.96
2017-07-16T10:00:54.354Z,1001.96
2017-07-16T10:01:54.382Z,1002.01
2017-07-16T10:02:54.411Z,1001.98
2017-07-16T10:03:54.436Z,1002.01
2017-07-16T10:04:54.469Z,1001.99
2017-07-16T10:05:54.497Z,1001.94
2017-07-16T10:06:54.530Z,1001.96
2017-07-16T10:07:54.559Z,1001.97
2017-07-16T10:08:54.584Z,1002
2017-07-16T10:09:54.617Z,1001.99
2017-07-16T10:10:54.647Z,1001.98
2017-07-16T10:11:54.706Z,1001.95
2017-07-16T10:12:54.700Z,1001.95
2017-07-16T10:13:54.732Z,1001.94
2017-07-16T10:14:54.761Z,1001.92
2017-07-16T10:15:54.790Z,1001.94
2017-07-16T10:16:54.806Z,1001.94
2017-07-16T10:17:54.844Z,1001.91
2017-07-16T10:18:54.877Z,1001.91
2017-07-16T10:19:54.905Z,1001.91
2017-07-16T10:20:54.935Z,1001.91
2017-07-16T10:21:54.963Z,1001.94
2017-07-16T10:22:54.992Z,1001.89
2017-07-16T10:23:55.021Z,1001.89
2017-07-16T10:24:55.050Z,1001.89
2017-07-16T10:25:55.079Z,1001.88
2017-07-16T10:26:55.107Z,1001.87
2017-07-16T10:27:55.136Z,1001.93
2017-07-16T10:28:55.161Z,1001.92
2017-07-16T10:29:55.193Z,1001.92
2017-07-16T10:30:55.222Z,1001.96
2017-07-16T10:31:55.268Z,1001.95
2017-07-16T10:32:55.284Z,1001.92
2017-07-16T10:33:55.311Z,1001.92
2017-07-16T10:34:55.342Z,1001.94
2017-07-16T10:35:55.371Z,1001.89
2017-07-16T10:36:55.400Z,1001.88
2017-07-16T10:37:55.425Z,1001.87
2017-07-16T10:38:55.458Z,1001.88
2017-07-16T10:39:55.482Z,1001.9
2017-07-16T10:40:55.520Z,1001.92
2017-07-16T10:41:55.539Z,1001.9
2017-07-16T10:42:55.573Z,1001.9
2017-07-16T10:43:55.597Z,1001.89
2017-07-16T10:44:55.634Z,1001.95
2017-07-16T10:45:55.655Z,1001.94
2017-07-16T10:46:55.694Z,1001.95
2017-07-16T10:47:55.726Z,1001.95
2017-07-16T10:48:55.741Z,1001.95
2017-07-16T10:49:55.774Z,1001.95
2017-07-16T10:50:55.808Z,1001.92
2017-07-16T10:51:55.832Z,1001.92
2017-07-16T10:52:55.866Z,1001.9
2017-07-16T10:53:55.896Z,1001.91
2017-07-16T10:54:55.923Z,1001.89
2017-07-16T10:55:55.952Z,1001.88
2017-07-16T10:56:55.987Z,1001.88
2017-07-16T10:57:56.016Z,1001.89
2017-07-16T10:58:56.041Z,1001.86
2017-07-16T10:59:56.071Z,1001.78
2017-07-16T11:00:56.100Z,1001.83
2017-07-16T11:01:56.129Z,1001.82
2017-07-16T11:02:56.157Z,1001.8
2017-07-16T11:03:56.186Z,1001.82
2017-07-16T11:04:56.218Z,1001.81
2017-07-16T11:05:56.248Z,1001.82
2017-07-16T11:06:56.276Z,1001.79
2017-07-16T11:07:56.302Z,1001.8
2017-07-16T11:08:56.334Z,1001.75
2017-07-16T11:09:56.363Z,1001.76
2017-07-16T11:10:56.392Z,1001.75
2017-07-16T11:11:56.417Z,1001.71
2017-07-16T11:12:56.451Z,1001.74
2017-07-16T11:13:56.478Z,1001.74
2017-07-16T11:14:56.511Z,1001.75
2017-07-16T11:15:56.539Z,1001.75
2017-07-16T11:16:56.568Z,1001.74
2017-07-16T11:17:56.597Z,1001.72
2017-07-16T11:18:56.632Z,1001.73
2017-07-16T11:19:56.656Z,1001.73
2017-07-16T11:20:56.684Z,1001.71
2017-07-16T11:21:56.712Z,1001.67
2017-07-16T11:22:56.741Z,1001.73
2017-07-16T11:23:56.775Z,1001.67
2017-07-16T11:24:56.812Z,1001.71
2017-07-16T11:25:56.832Z,1001.7
2017-07-16T11:26:57.113Z,1001.72
2017-07-16T11:27:56.894Z,1001.72
2017-07-16T11:28:56.918Z,1001.68
2017-07-16T11:29:56.947Z,1001.65
2017-07-16T11:30:56.977Z,1001.72
2017-07-16T11:31:57.261Z,1001.7
2017-07-16T11:32:57.050Z,1001.68
2017-07-16T11:33:57.071Z,1001.64
2017-07-16T11:34:57.099Z,1001.65
2017-07-16T11:35:57.133Z,1001.61
2017-07-16T11:36:57.161Z,1001.64
2017-07-16T11:37:57.190Z,1001.64
2017-07-16T11:38:57.218Z,1001.64
2017-07-16T11:39:57.247Z,1001.6
2017-07-16T11:40:57.276Z,1001.59
2017-07-16T11:41:57.306Z,1001.6
2017-07-16T11:42:57.337Z,1001.56
2017-07-16T11:43:57.367Z,1001.61
2017-07-16T11:44:57.397Z,1001.59
2017-07-16T11:45:57.420Z,1001.61
2017-07-16T11:46:57.458Z,1001.62
2017-07-16T11:47:57.483Z,1001.57
2017-07-16T11:48:57.519Z,1001.55
2017-07-16T11:49:57.544Z,1001.51
2017-07-16T11:50:57.573Z,1001.58
2017-07-16T11:51:57.601Z,1001.58
2017-07-16T11:52:57.633Z,1001.56
2017-07-16T11:53:57.663Z,1001.59
2017-07-16T11:54:57.693Z,1001.53
2017-07-16T11:55:57.721Z,1001.52
2017-07-16T11:56:57.753Z,1001.53
2017-07-16T11:57:57.781Z,1001.51
2017-07-16T11:58:57.810Z,1001.49
2017-07-16T11:59:57.833Z,1001.52
2017-07-16T12:00:57.871Z,1001.45
2017-07-16T12:01:57.901Z,1001.43
2017-07-16T12:02:57.930Z,1001.48
2017-07-16T12:03:57.957Z,1001.49
2017-07-16T12:04:57.991Z,1001.44
2017-07-16T12:05:58.022Z,1001.41
2017-07-16T12:06:58.048Z,1001.37
2017-07-16T12:07:58.079Z,1001.35
2017-07-16T12:08:58.113Z,1001.37